HAZ145 EGLL-EDDF
Flight info
| Callsign | HAZ145 |
|---|---|
| Flight time | 1h 11m |
| Altitude | 35000 |
| Route | DET L6 DVR UL9 KONAN UL607 SPI T180 NIVNU T847 IMCOM IMCOM1D |
| Aircraft | A339/H-SADE1E2E3GHIJ3J5M1P2RWXY/LB2D1 |
Departure
| Time | 2026-05-05 06:49 |
|---|---|
| Airport | London Heathrow Airport (EGLL) |
Arrival
| Time | 2026-05-05 08:01 |
|---|---|
| Airport | Frankfurt Main Airport (EDDF) |
| Time | Latitude | Longitude | Altitude | Speed | Heading |
|---|---|---|---|---|---|
| 2026-05-05 06:28 | 51.46840 | -0.45574 | 99 ft | 0 kts | 360° |
| 2026-05-05 06:39 | 51.46837 | -0.45574 | 99 ft | 1 kts | 1° |
| 2026-05-05 06:39 | 51.46827 | -0.45575 | 99 ft | 2 kts | 6° |
| 2026-05-05 06:39 | 51.46807 | -0.45578 | 99 ft | 2 kts | 5° |
| 2026-05-05 06:39 | 51.46797 | -0.45579 | 99 ft | 2 kts | 4° |
| 2026-05-05 06:40 | 51.46782 | -0.45581 | 98 ft | 2 kts | 4° |
| 2026-05-05 06:40 | 51.46768 | -0.45582 | 98 ft | 1 kts | 4° |
| 2026-05-05 06:40 | 51.46758 | -0.45581 | 98 ft | 2 kts | 329° |
| 2026-05-05 06:40 | 51.46749 | -0.45563 | 98 ft | 2 kts | 281° |
| 2026-05-05 06:41 | 51.46748 | -0.45554 | 98 ft | 1 kts | 268° |
| 2026-05-05 06:41 | 51.46748 | -0.45548 | 97 ft | 0 kts | 270° |
| 2026-05-05 06:42 | 51.46748 | -0.45558 | 97 ft | 2 kts | 270° |
| 2026-05-05 06:43 | 51.46748 | -0.45589 | 97 ft | 5 kts | 270° |
| 2026-05-05 06:43 | 51.46748 | -0.45724 | 95 ft | 12 kts | 270° |
| 2026-05-05 06:43 | 51.46748 | -0.45828 | 94 ft | 15 kts | 270° |
| 2026-05-05 06:43 | 51.46747 | -0.46073 | 93 ft | 17 kts | 270° |
| 2026-05-05 06:44 | 51.46746 | -0.46272 | 90 ft | 18 kts | 270° |
| 2026-05-05 06:44 | 51.46748 | -0.46492 | 88 ft | 20 kts | 272° |
| 2026-05-05 06:44 | 51.46747 | -0.46646 | 86 ft | 21 kts | 270° |
| 2026-05-05 06:44 | 51.46748 | -0.46962 | 86 ft | 20 kts | 268° |
| 2026-05-05 06:45 | 51.46746 | -0.47112 | 88 ft | 20 kts | 271° |
| 2026-05-05 06:45 | 51.46745 | -0.47407 | 89 ft | 19 kts | 270° |
| 2026-05-05 06:45 | 51.46744 | -0.47621 | 89 ft | 19 kts | 270° |
| 2026-05-05 06:45 | 51.46744 | -0.47765 | 89 ft | 19 kts | 270° |
| 2026-05-05 06:46 | 51.46743 | -0.47980 | 89 ft | 19 kts | 270° |
| 2026-05-05 06:46 | 51.46742 | -0.48200 | 88 ft | 20 kts | 269° |
| 2026-05-05 06:46 | 51.46741 | -0.48433 | 86 ft | 21 kts | 271° |
| 2026-05-05 06:46 | 51.46741 | -0.48645 | 86 ft | 14 kts | 269° |
| 2026-05-05 06:47 | 51.46699 | -0.48750 | 86 ft | 9 kts | 197° |
| 2026-05-05 06:47 | 51.46657 | -0.48753 | 86 ft | 7 kts | 180° |
| 2026-05-05 06:47 | 51.46601 | -0.48767 | 86 ft | 10 kts | 194° |
| 2026-05-05 06:47 | 51.46495 | -0.48758 | 86 ft | 11 kts | 146° |
| 2026-05-05 06:48 | 51.46477 | -0.48692 | 86 ft | 9 kts | 88° |
| 2026-05-05 06:48 | 51.46479 | -0.48589 | 86 ft | 10 kts | 90° |
| 2026-05-05 06:48 | 51.46481 | -0.48257 | 86 ft | 61 kts | 90° |
| 2026-05-05 06:48 | 51.46485 | -0.47224 | 86 ft | 125 kts | 90° |
| 2026-05-05 06:49 | 51.46490 | -0.44884 | 219 ft | 180 kts | 89° |
| 2026-05-05 06:49 | 51.46499 | -0.43567 | 758 ft | 175 kts | 86° |
| 2026-05-05 06:49 | 51.46461 | -0.41698 | 1604 ft | 171 kts | 99° |
| 2026-05-05 06:49 | 51.45907 | -0.39938 | 2039 ft | 190 kts | 122° |
| 2026-05-05 06:50 | 51.44931 | -0.37404 | 2532 ft | 209 kts | 110° |
| 2026-05-05 06:50 | 51.44355 | -0.35188 | 2897 ft | 227 kts | 108° |
| 2026-05-05 06:50 | 51.43961 | -0.33556 | 3170 ft | 239 kts | 107° |
| 2026-05-05 06:50 | 51.43364 | -0.30956 | 3605 ft | 257 kts | 107° |
| 2026-05-05 06:51 | 51.42582 | -0.27316 | 4538 ft | 265 kts | 103° |
| 2026-05-05 06:51 | 51.42288 | -0.25382 | 5087 ft | 266 kts | 100° |
| 2026-05-05 06:51 | 51.41798 | -0.21523 | 5797 ft | 269 kts | 99° |
| 2026-05-05 06:51 | 51.41549 | -0.19556 | 6030 ft | 273 kts | 100° |
| 2026-05-05 06:52 | 51.41157 | -0.16545 | 6812 ft | 277 kts | 101° |
| 2026-05-05 06:52 | 51.40753 | -0.13548 | 7688 ft | 277 kts | 101° |
| 2026-05-05 06:52 | 51.40205 | -0.09541 | 8731 ft | 282 kts | 101° |
| 2026-05-05 06:52 | 51.39782 | -0.06472 | 9506 ft | 286 kts | 101° |
| 2026-05-05 06:53 | 51.39344 | -0.03323 | 10287 ft | 290 kts | 102° |
| 2026-05-05 06:53 | 51.39049 | -0.01201 | 10662 ft | 298 kts | 102° |
| 2026-05-05 06:53 | 51.38422 | 0.03298 | 11179 ft | 322 kts | 102° |
| 2026-05-05 06:53 | 51.38090 | 0.05673 | 11414 ft | 335 kts | 102° |
| 2026-05-05 06:54 | 51.37566 | 0.09417 | 11751 ft | 353 kts | 102° |
| 2026-05-05 06:54 | 51.37014 | 0.13356 | 12073 ft | 371 kts | 102° |
| 2026-05-05 06:54 | 51.36446 | 0.17404 | 12593 ft | 382 kts | 102° |
| 2026-05-05 06:54 | 51.35860 | 0.21574 | 13359 ft | 386 kts | 102° |
| 2026-05-05 06:55 | 51.35277 | 0.25707 | 14156 ft | 388 kts | 102° |
| 2026-05-05 06:55 | 51.34678 | 0.29938 | 14916 ft | 392 kts | 102° |
| 2026-05-05 06:55 | 51.34073 | 0.34193 | 15643 ft | 396 kts | 102° |
| 2026-05-05 06:55 | 51.33463 | 0.38467 | 16385 ft | 400 kts | 103° |
| 2026-05-05 06:56 | 51.32633 | 0.44260 | 17360 ft | 405 kts | 103° |
| 2026-05-05 06:56 | 51.32214 | 0.47181 | 17830 ft | 407 kts | 103° |
| 2026-05-05 06:56 | 51.31582 | 0.51585 | 18548 ft | 411 kts | 103° |
| 2026-05-05 06:56 | 51.30723 | 0.57531 | 19458 ft | 416 kts | 103° |
| 2026-05-05 06:57 | 51.30260 | 0.60483 | 19895 ft | 418 kts | 105° |
| 2026-05-05 06:57 | 51.29456 | 0.64992 | 20615 ft | 420 kts | 106° |
| 2026-05-05 06:57 | 51.28643 | 0.69469 | 21679 ft | 412 kts | 108° |
| 2026-05-05 06:57 | 51.27858 | 0.73755 | 22570 ft | 408 kts | 108° |
| 2026-05-05 06:58 | 51.26788 | 0.79575 | 23342 ft | 413 kts | 108° |
| 2026-05-05 06:58 | 51.26250 | 0.82488 | 23681 ft | 416 kts | 108° |
| 2026-05-05 06:58 | 51.25151 | 0.88439 | 24420 ft | 421 kts | 108° |
| 2026-05-05 06:58 | 51.24596 | 0.91435 | 24768 ft | 424 kts | 108° |
| 2026-05-05 06:59 | 51.23761 | 0.95937 | 25277 ft | 428 kts | 108° |
| 2026-05-05 06:59 | 51.22916 | 1.00479 | 25792 ft | 431 kts | 108° |
| 2026-05-05 06:59 | 51.22066 | 1.05045 | 26279 ft | 435 kts | 108° |
| 2026-05-05 06:59 | 51.21198 | 1.09702 | 26737 ft | 439 kts | 108° |
| 2026-05-05 07:00 | 51.20332 | 1.14331 | 27193 ft | 442 kts | 108° |
| 2026-05-05 07:00 | 51.19445 | 1.19055 | 27630 ft | 446 kts | 108° |
| 2026-05-05 07:00 | 51.18553 | 1.23785 | 28084 ft | 449 kts | 108° |
| 2026-05-05 07:00 | 51.17677 | 1.28526 | 28523 ft | 452 kts | 107° |
| 2026-05-05 07:01 | 51.16705 | 1.35021 | 29092 ft | 457 kts | 103° |
| 2026-05-05 07:01 | 51.16327 | 1.38342 | 29368 ft | 460 kts | 101° |
| 2026-05-05 07:01 | 51.15904 | 1.43379 | 29687 ft | 466 kts | 97° |
| 2026-05-05 07:01 | 51.15546 | 1.50234 | 30232 ft | 469 kts | 96° |
| 2026-05-05 07:02 | 51.15310 | 1.55327 | 30724 ft | 469 kts | 96° |
| 2026-05-05 07:02 | 51.15148 | 1.58827 | 31065 ft | 469 kts | 96° |
| 2026-05-05 07:02 | 51.14905 | 1.63952 | 31506 ft | 469 kts | 96° |
| 2026-05-05 07:02 | 51.14666 | 1.68884 | 31969 ft | 468 kts | 97° |
| 2026-05-05 07:03 | 51.14415 | 1.74014 | 32501 ft | 466 kts | 97° |
| 2026-05-05 07:03 | 51.14159 | 1.79093 | 33008 ft | 464 kts | 97° |
| 2026-05-05 07:03 | 51.13816 | 1.85844 | 33552 ft | 464 kts | 97° |
| 2026-05-05 07:03 | 51.13639 | 1.89284 | 33786 ft | 464 kts | 97° |
| 2026-05-05 07:04 | 51.13377 | 1.94351 | 34096 ft | 466 kts | 98° |
| 2026-05-05 07:04 | 51.13110 | 1.99470 | 34402 ft | 468 kts | 98° |
| 2026-05-05 07:04 | 51.12841 | 2.04617 | 34691 ft | 470 kts | 98° |
| 2026-05-05 07:04 | 51.12476 | 2.11502 | 34927 ft | 471 kts | 98° |
| 2026-05-05 07:05 | 51.12292 | 2.14975 | 34917 ft | 471 kts | 98° |
| 2026-05-05 07:05 | 51.11730 | 2.25308 | 34919 ft | 471 kts | 98° |
| 2026-05-05 07:06 | 51.11161 | 2.35647 | 34922 ft | 473 kts | 98° |
| 2026-05-05 07:06 | 51.10576 | 2.46031 | 34927 ft | 474 kts | 98° |
| 2026-05-05 07:07 | 51.09979 | 2.56490 | 34918 ft | 474 kts | 99° |
| 2026-05-05 07:07 | 51.09053 | 2.66528 | 34939 ft | 471 kts | 106° |
| 2026-05-05 07:08 | 51.07426 | 2.76643 | 34911 ft | 469 kts | 110° |
| 2026-05-05 07:08 | 51.05608 | 2.86592 | 34939 ft | 469 kts | 111° |
| 2026-05-05 07:09 | 51.03795 | 2.96489 | 34925 ft | 469 kts | 111° |
| 2026-05-05 07:09 | 51.01974 | 3.06388 | 34919 ft | 469 kts | 111° |
| 2026-05-05 07:10 | 50.99840 | 3.17956 | 34915 ft | 471 kts | 111° |
| 2026-05-05 07:10 | 50.98306 | 3.26223 | 34909 ft | 470 kts | 111° |
| 2026-05-05 07:11 | 50.96463 | 3.36110 | 34889 ft | 470 kts | 111° |
| 2026-05-05 07:11 | 50.94600 | 3.46052 | 34882 ft | 470 kts | 111° |
| 2026-05-05 07:12 | 50.92748 | 3.55886 | 34896 ft | 470 kts | 111° |
| 2026-05-05 07:12 | 50.90866 | 3.65799 | 34887 ft | 470 kts | 112° |
| 2026-05-05 07:13 | 50.88983 | 3.75610 | 34900 ft | 469 kts | 112° |
| 2026-05-05 07:13 | 50.87079 | 3.85438 | 34886 ft | 470 kts | 112° |
| 2026-05-05 07:14 | 50.85155 | 3.95326 | 34882 ft | 470 kts | 112° |
| 2026-05-05 07:14 | 50.83238 | 4.05146 | 34883 ft | 470 kts | 112° |
| 2026-05-05 07:15 | 50.81307 | 4.14984 | 34889 ft | 470 kts | 112° |
| 2026-05-05 07:15 | 50.79372 | 4.24787 | 34909 ft | 469 kts | 113° |
| 2026-05-05 07:16 | 50.77434 | 4.34541 | 34887 ft | 471 kts | 113° |
| 2026-05-05 07:16 | 50.75469 | 4.44390 | 34910 ft | 471 kts | 113° |
| 2026-05-05 07:17 | 50.73159 | 4.55892 | 34900 ft | 472 kts | 112° |
| 2026-05-05 07:17 | 50.71523 | 4.64106 | 34889 ft | 472 kts | 112° |
| 2026-05-05 07:18 | 50.69623 | 4.73968 | 34897 ft | 472 kts | 112° |
| 2026-05-05 07:18 | 50.67702 | 4.83866 | 34890 ft | 473 kts | 112° |
| 2026-05-05 07:19 | 50.65760 | 4.93750 | 34895 ft | 473 kts | 113° |
| 2026-05-05 07:19 | 50.63756 | 5.03547 | 34874 ft | 473 kts | 114° |
| 2026-05-05 07:20 | 50.61723 | 5.13380 | 34892 ft | 474 kts | 114° |
| 2026-05-05 07:20 | 50.59689 | 5.23187 | 34682 ft | 474 kts | 113° |
| 2026-05-05 07:20 | 50.58657 | 5.28151 | 34403 ft | 472 kts | 113° |
| 2026-05-05 07:21 | 50.57650 | 5.32984 | 34122 ft | 470 kts | 113° |
| 2026-05-05 07:21 | 50.56626 | 5.37883 | 33848 ft | 469 kts | 113° |
| 2026-05-05 07:21 | 50.55611 | 5.42736 | 33576 ft | 467 kts | 113° |
| 2026-05-05 07:21 | 50.54610 | 5.47501 | 33292 ft | 468 kts | 113° |
| 2026-05-05 07:22 | 50.53591 | 5.52349 | 33018 ft | 467 kts | 113° |
| 2026-05-05 07:22 | 50.52566 | 5.57201 | 32746 ft | 468 kts | 113° |
| 2026-05-05 07:22 | 50.51546 | 5.62046 | 32401 ft | 470 kts | 112° |
| 2026-05-05 07:22 | 50.50619 | 5.66926 | 31983 ft | 472 kts | 111° |
| 2026-05-05 07:23 | 50.49692 | 5.71894 | 31449 ft | 473 kts | 110° |
| 2026-05-05 07:23 | 50.48776 | 5.76800 | 30852 ft | 473 kts | 110° |
| 2026-05-05 07:23 | 50.47862 | 5.81704 | 30221 ft | 473 kts | 110° |
| 2026-05-05 07:23 | 50.46936 | 5.86647 | 29625 ft | 471 kts | 110° |
| 2026-05-05 07:24 | 50.46019 | 5.91512 | 29267 ft | 467 kts | 110° |
| 2026-05-05 07:24 | 50.45106 | 5.96358 | 28848 ft | 464 kts | 110° |
| 2026-05-05 07:24 | 50.44186 | 6.01225 | 28446 ft | 461 kts | 110° |
| 2026-05-05 07:24 | 50.43288 | 6.05957 | 28047 ft | 458 kts | 109° |
| 2026-05-05 07:25 | 50.42381 | 6.10719 | 27619 ft | 455 kts | 110° |
| 2026-05-05 07:25 | 50.41487 | 6.15411 | 27250 ft | 452 kts | 109° |
| 2026-05-05 07:25 | 50.40587 | 6.20112 | 26843 ft | 449 kts | 109° |
| 2026-05-05 07:25 | 50.39694 | 6.24760 | 26441 ft | 446 kts | 109° |
| 2026-05-05 07:26 | 50.38806 | 6.29371 | 26045 ft | 443 kts | 109° |
| 2026-05-05 07:26 | 50.37923 | 6.33955 | 25644 ft | 440 kts | 109° |
| 2026-05-05 07:26 | 50.37089 | 6.38549 | 25234 ft | 438 kts | 106° |
| 2026-05-05 07:26 | 50.36444 | 6.43220 | 24860 ft | 436 kts | 102° |
| 2026-05-05 07:27 | 50.36012 | 6.47904 | 24542 ft | 436 kts | 97° |
| 2026-05-05 07:27 | 50.35722 | 6.52580 | 24205 ft | 436 kts | 97° |
| 2026-05-05 07:27 | 50.35435 | 6.57295 | 23817 ft | 434 kts | 96° |
| 2026-05-05 07:27 | 50.35147 | 6.61960 | 23410 ft | 431 kts | 96° |
| 2026-05-05 07:28 | 50.34853 | 6.66630 | 23009 ft | 428 kts | 97° |
| 2026-05-05 07:28 | 50.34556 | 6.71254 | 22616 ft | 424 kts | 97° |
| 2026-05-05 07:28 | 50.34166 | 6.77336 | 22097 ft | 420 kts | 97° |
| 2026-05-05 07:28 | 50.33980 | 6.80295 | 21830 ft | 418 kts | 97° |
| 2026-05-05 07:29 | 50.33520 | 6.84764 | 21393 ft | 413 kts | 105° |
| 2026-05-05 07:29 | 50.32708 | 6.89066 | 21016 ft | 407 kts | 112° |
| 2026-05-05 07:29 | 50.31606 | 6.93121 | 20637 ft | 403 kts | 116° |
| 2026-05-05 07:29 | 50.30434 | 6.97017 | 20240 ft | 399 kts | 117° |
| 2026-05-05 07:30 | 50.29245 | 7.00934 | 19857 ft | 396 kts | 117° |
| 2026-05-05 07:30 | 50.26921 | 7.08655 | 19066 ft | 391 kts | 117° |
| 2026-05-05 07:30 | 50.25784 | 7.12457 | 18676 ft | 388 kts | 117° |
| 2026-05-05 07:31 | 50.24648 | 7.16250 | 18296 ft | 384 kts | 117° |
| 2026-05-05 07:31 | 50.23530 | 7.19976 | 17919 ft | 382 kts | 117° |
| 2026-05-05 07:31 | 50.22406 | 7.23710 | 17531 ft | 379 kts | 117° |
| 2026-05-05 07:31 | 50.21291 | 7.27408 | 17141 ft | 377 kts | 117° |
| 2026-05-05 07:32 | 50.20172 | 7.31130 | 16754 ft | 374 kts | 116° |
| 2026-05-05 07:32 | 50.19175 | 7.34828 | 16373 ft | 373 kts | 112° |
| 2026-05-05 07:32 | 50.18265 | 7.38615 | 15972 ft | 371 kts | 112° |
| 2026-05-05 07:32 | 50.17384 | 7.42327 | 15594 ft | 369 kts | 112° |
| 2026-05-05 07:33 | 50.16492 | 7.46084 | 15212 ft | 367 kts | 112° |
| 2026-05-05 07:33 | 50.15605 | 7.49802 | 14822 ft | 365 kts | 112° |
| 2026-05-05 07:33 | 50.14729 | 7.53462 | 14426 ft | 363 kts | 112° |
| 2026-05-05 07:33 | 50.13843 | 7.57151 | 14048 ft | 361 kts | 112° |
| 2026-05-05 07:34 | 50.12970 | 7.60782 | 13666 ft | 359 kts | 111° |
| 2026-05-05 07:34 | 50.12093 | 7.64418 | 13280 ft | 358 kts | 112° |
| 2026-05-05 07:34 | 50.11091 | 7.67923 | 12887 ft | 355 kts | 118° |
| 2026-05-05 07:34 | 50.09880 | 7.71216 | 12673 ft | 356 kts | 124° |
| 2026-05-05 07:35 | 50.08477 | 7.74444 | 12696 ft | 359 kts | 126° |
| 2026-05-05 07:35 | 50.07054 | 7.77637 | 12705 ft | 359 kts | 127° |
| 2026-05-05 07:35 | 50.05629 | 7.80822 | 12589 ft | 360 kts | 127° |
| 2026-05-05 07:35 | 50.04215 | 7.83984 | 12162 ft | 359 kts | 127° |
| 2026-05-05 07:36 | 50.02804 | 7.87144 | 11786 ft | 357 kts | 127° |
| 2026-05-05 07:36 | 50.01395 | 7.90299 | 11385 ft | 354 kts | 127° |
| 2026-05-05 07:36 | 50.00212 | 7.93612 | 10994 ft | 354 kts | 109° |
| 2026-05-05 07:36 | 49.99989 | 7.97388 | 10698 ft | 354 kts | 84° |
| 2026-05-05 07:37 | 50.00704 | 8.01095 | 10717 ft | 357 kts | 70° |
| 2026-05-05 07:37 | 50.01628 | 8.04664 | 10736 ft | 358 kts | 70° |
| 2026-05-05 07:37 | 50.02543 | 8.08264 | 10770 ft | 358 kts | 70° |
| 2026-05-05 07:37 | 50.03445 | 8.11873 | 10783 ft | 358 kts | 70° |
| 2026-05-05 07:38 | 50.04339 | 8.15472 | 10806 ft | 358 kts | 70° |
| 2026-05-05 07:38 | 50.05227 | 8.19096 | 10692 ft | 358 kts | 70° |
| 2026-05-05 07:38 | 50.06098 | 8.22683 | 10418 ft | 353 kts | 70° |
| 2026-05-05 07:38 | 50.06946 | 8.26189 | 10118 ft | 348 kts | 71° |
| 2026-05-05 07:39 | 50.07786 | 8.29671 | 9827 ft | 342 kts | 71° |
| 2026-05-05 07:39 | 50.08615 | 8.33104 | 9623 ft | 335 kts | 71° |
| 2026-05-05 07:39 | 50.09420 | 8.36448 | 9429 ft | 327 kts | 71° |
| 2026-05-05 07:39 | 50.10214 | 8.39749 | 9234 ft | 321 kts | 71° |
| 2026-05-05 07:40 | 50.10988 | 8.42971 | 9044 ft | 314 kts | 71° |
| 2026-05-05 07:40 | 50.11737 | 8.46091 | 8854 ft | 308 kts | 71° |
| 2026-05-05 07:40 | 50.12481 | 8.49191 | 8664 ft | 303 kts | 71° |
| 2026-05-05 07:40 | 50.13206 | 8.52228 | 8475 ft | 298 kts | 71° |
| 2026-05-05 07:41 | 50.13921 | 8.55223 | 8302 ft | 292 kts | 71° |
| 2026-05-05 07:41 | 50.14625 | 8.58178 | 8173 ft | 286 kts | 71° |
| 2026-05-05 07:41 | 50.15311 | 8.61069 | 8051 ft | 286 kts | 71° |
| 2026-05-05 07:41 | 50.15998 | 8.63960 | 7934 ft | 286 kts | 71° |
| 2026-05-05 07:42 | 50.16690 | 8.66873 | 7812 ft | 285 kts | 71° |
| 2026-05-05 07:42 | 50.17375 | 8.69757 | 7689 ft | 284 kts | 71° |
| 2026-05-05 07:42 | 50.18065 | 8.72666 | 7558 ft | 284 kts | 71° |
| 2026-05-05 07:42 | 50.18743 | 8.75526 | 7456 ft | 283 kts | 71° |
| 2026-05-05 07:43 | 50.19432 | 8.78431 | 7332 ft | 283 kts | 72° |
| 2026-05-05 07:43 | 50.20015 | 8.80902 | 7210 ft | 282 kts | 71° |
| 2026-05-05 07:43 | 50.20689 | 8.83767 | 7096 ft | 282 kts | 71° |
| 2026-05-05 07:43 | 50.21361 | 8.86631 | 6970 ft | 282 kts | 71° |
| 2026-05-05 07:44 | 50.22030 | 8.89482 | 6850 ft | 281 kts | 71° |
| 2026-05-05 07:44 | 50.22704 | 8.92355 | 6721 ft | 281 kts | 71° |
| 2026-05-05 07:44 | 50.23377 | 8.95221 | 6598 ft | 280 kts | 72° |
| 2026-05-05 07:44 | 50.24038 | 8.98046 | 6477 ft | 279 kts | 71° |
| 2026-05-05 07:45 | 50.24700 | 9.00885 | 6352 ft | 278 kts | 71° |
| 2026-05-05 07:45 | 50.25367 | 9.03743 | 6222 ft | 277 kts | 71° |
| 2026-05-05 07:45 | 50.26022 | 9.06550 | 6096 ft | 277 kts | 71° |
| 2026-05-05 07:45 | 50.26677 | 9.09366 | 5972 ft | 276 kts | 71° |
| 2026-05-05 07:46 | 50.27327 | 9.12164 | 5851 ft | 275 kts | 71° |
| 2026-05-05 07:46 | 50.27983 | 9.14992 | 5722 ft | 275 kts | 71° |
| 2026-05-05 07:46 | 50.28634 | 9.17796 | 5593 ft | 274 kts | 71° |
| 2026-05-05 07:46 | 50.29280 | 9.20591 | 5467 ft | 274 kts | 71° |
| 2026-05-05 07:47 | 50.29925 | 9.23378 | 5335 ft | 273 kts | 71° |
| 2026-05-05 07:47 | 50.30564 | 9.26155 | 5212 ft | 271 kts | 71° |
| 2026-05-05 07:47 | 50.31202 | 9.28928 | 5078 ft | 271 kts | 70° |
| 2026-05-05 07:47 | 50.31760 | 9.31695 | 4943 ft | 270 kts | 83° |
| 2026-05-05 07:48 | 50.31605 | 9.34616 | 4812 ft | 268 kts | 110° |
| 2026-05-05 07:48 | 50.30668 | 9.37081 | 4689 ft | 266 kts | 135° |
| 2026-05-05 07:48 | 50.29150 | 9.38704 | 4566 ft | 265 kts | 158° |
| 2026-05-05 07:48 | 50.27437 | 9.39659 | 4451 ft | 264 kts | 161° |
| 2026-05-05 07:49 | 50.25639 | 9.40205 | 4311 ft | 264 kts | 182° |
| 2026-05-05 07:49 | 50.23885 | 9.39446 | 4186 ft | 264 kts | 209° |
| 2026-05-05 07:49 | 50.22524 | 9.37532 | 4058 ft | 265 kts | 236° |
| 2026-05-05 07:49 | 50.21777 | 9.34943 | 3983 ft | 265 kts | 251° |
| 2026-05-05 07:50 | 50.21182 | 9.32206 | 3976 ft | 266 kts | 251° |
| 2026-05-05 07:50 | 50.20584 | 9.29476 | 3973 ft | 266 kts | 251° |
| 2026-05-05 07:50 | 50.19980 | 9.26777 | 3968 ft | 265 kts | 251° |
| 2026-05-05 07:50 | 50.19357 | 9.24048 | 3972 ft | 265 kts | 251° |
| 2026-05-05 07:51 | 50.18737 | 9.21351 | 3971 ft | 265 kts | 250° |
| 2026-05-05 07:51 | 50.18168 | 9.18646 | 3973 ft | 264 kts | 253° |
| 2026-05-05 07:51 | 50.17648 | 9.15868 | 3970 ft | 263 kts | 253° |
| 2026-05-05 07:51 | 50.17109 | 9.13174 | 3963 ft | 262 kts | 252° |
| 2026-05-05 07:52 | 50.16542 | 9.10540 | 3938 ft | 249 kts | 251° |
| 2026-05-05 07:52 | 50.15978 | 9.08061 | 3941 ft | 234 kts | 250° |
| 2026-05-05 07:52 | 50.15435 | 9.05761 | 3936 ft | 220 kts | 249° |
| 2026-05-05 07:52 | 50.14914 | 9.03602 | 3934 ft | 205 kts | 249° |
| 2026-05-05 07:53 | 50.14429 | 9.01614 | 3947 ft | 190 kts | 249° |
| 2026-05-05 07:53 | 50.13973 | 8.99757 | 3941 ft | 174 kts | 248° |
| 2026-05-05 07:53 | 50.13570 | 8.98122 | 3939 ft | 169 kts | 248° |
| 2026-05-05 07:53 | 50.13145 | 8.96405 | 3950 ft | 169 kts | 248° |
| 2026-05-05 07:54 | 50.12728 | 8.94712 | 3949 ft | 160 kts | 249° |
| 2026-05-05 07:54 | 50.12345 | 8.93159 | 3936 ft | 152 kts | 249° |
| 2026-05-05 07:54 | 50.11971 | 8.91636 | 3933 ft | 147 kts | 249° |
| 2026-05-05 07:54 | 50.11609 | 8.90161 | 3950 ft | 147 kts | 249° |
| 2026-05-05 07:55 | 50.11246 | 8.88674 | 3951 ft | 146 kts | 249° |
| 2026-05-05 07:55 | 50.10886 | 8.87197 | 3964 ft | 146 kts | 249° |
| 2026-05-05 07:55 | 50.10525 | 8.85715 | 3932 ft | 147 kts | 249° |
| 2026-05-05 07:55 | 50.10162 | 8.84221 | 3745 ft | 146 kts | 249° |
| 2026-05-05 07:56 | 50.09804 | 8.82743 | 3552 ft | 146 kts | 249° |
| 2026-05-05 07:56 | 50.09444 | 8.81254 | 3356 ft | 146 kts | 249° |
| 2026-05-05 07:56 | 50.09085 | 8.79771 | 3161 ft | 146 kts | 249° |
| 2026-05-05 07:56 | 50.08730 | 8.78301 | 2970 ft | 145 kts | 250° |
| 2026-05-05 07:57 | 50.08375 | 8.76830 | 2778 ft | 144 kts | 250° |
| 2026-05-05 07:57 | 50.08026 | 8.75386 | 2592 ft | 144 kts | 250° |
| 2026-05-05 07:57 | 50.07675 | 8.73925 | 2404 ft | 143 kts | 250° |
| 2026-05-05 07:57 | 50.07328 | 8.72488 | 2216 ft | 143 kts | 250° |
| 2026-05-05 07:58 | 50.06981 | 8.71046 | 2029 ft | 143 kts | 251° |
| 2026-05-05 07:58 | 50.06632 | 8.69593 | 1839 ft | 142 kts | 251° |
| 2026-05-05 07:58 | 50.06285 | 8.68154 | 1652 ft | 142 kts | 250° |
| 2026-05-05 07:58 | 50.05941 | 8.66722 | 1466 ft | 141 kts | 250° |
| 2026-05-05 07:59 | 50.05600 | 8.65303 | 1280 ft | 141 kts | 250° |
| 2026-05-05 07:59 | 50.05257 | 8.63872 | 1094 ft | 141 kts | 250° |
| 2026-05-05 07:59 | 50.04913 | 8.62442 | 903 ft | 140 kts | 249° |
| 2026-05-05 07:59 | 50.04571 | 8.61022 | 706 ft | 140 kts | 250° |
| 2026-05-05 08:00 | 50.04234 | 8.59623 | 535 ft | 139 kts | 249° |
| 2026-05-05 08:00 | 50.03908 | 8.58261 | 376 ft | 137 kts | 250° |
| 2026-05-05 08:00 | 50.03613 | 8.57019 | 352 ft | 94 kts | 251° |
| 2026-05-05 08:00 | 50.03422 | 8.56212 | 348 ft | 64 kts | 250° |
| 2026-05-05 08:01 | 50.03305 | 8.55720 | 344 ft | 28 kts | 245° |
| 2026-05-05 08:01 | 50.03202 | 8.55537 | 343 ft | 18 kts | 220° |
| 2026-05-05 08:01 | 50.03150 | 8.55469 | 343 ft | 5 kts | 220° |
| 2026-05-05 08:01 | 50.03134 | 8.55450 | 343 ft | 1 kts | 206° |
| 2026-05-05 08:02 | 50.03123 | 8.55443 | 344 ft | 2 kts | 200° |
| 2026-05-05 08:02 | 50.03111 | 8.55439 | 344 ft | 1 kts | 189° |
| 2026-05-05 08:02 | 50.03096 | 8.55439 | 344 ft | 2 kts | 176° |
| 2026-05-05 08:02 | 50.03079 | 8.55451 | 344 ft | 3 kts | 141° |
| 2026-05-05 08:03 | 50.03070 | 8.55498 | 345 ft | 6 kts | 99° |
| 2026-05-05 08:03 | 50.03080 | 8.55579 | 344 ft | 9 kts | 66° |
| 2026-05-05 08:03 | 50.03106 | 8.55681 | 344 ft | 11 kts | 69° |
| 2026-05-05 08:03 | 50.03133 | 8.55791 | 346 ft | 10 kts | 70° |
| 2026-05-05 08:04 | 50.03159 | 8.55905 | 346 ft | 12 kts | 71° |
| 2026-05-05 08:04 | 50.03189 | 8.56034 | 346 ft | 13 kts | 70° |
| 2026-05-05 08:04 | 50.03223 | 8.56175 | 346 ft | 14 kts | 70° |
| 2026-05-05 08:04 | 50.03256 | 8.56315 | 348 ft | 14 kts | 70° |
| 2026-05-05 08:05 | 50.03290 | 8.56455 | 348 ft | 12 kts | 70° |
| 2026-05-05 08:05 | 50.03318 | 8.56576 | 349 ft | 11 kts | 70° |
| 2026-05-05 08:05 | 50.03347 | 8.56695 | 349 ft | 11 kts | 71° |
| 2026-05-05 08:05 | 50.03323 | 8.56804 | 349 ft | 9 kts | 141° |
| 2026-05-05 08:06 | 50.03300 | 8.56880 | 349 ft | 8 kts | 95° |
| 2026-05-05 08:06 | 50.03320 | 8.56976 | 349 ft | 11 kts | 69° |
| 2026-05-05 08:06 | 50.03357 | 8.57127 | 347 ft | 18 kts | 70° |
| 2026-05-05 08:06 | 50.03403 | 8.57319 | 349 ft | 18 kts | 70° |
| 2026-05-05 08:07 | 50.03445 | 8.57500 | 353 ft | 16 kts | 70° |
| 2026-05-05 08:07 | 50.03483 | 8.57656 | 358 ft | 13 kts | 70° |
| 2026-05-05 08:07 | 50.03513 | 8.57782 | 362 ft | 11 kts | 70° |
| 2026-05-05 08:07 | 50.03538 | 8.57891 | 365 ft | 9 kts | 70° |
| 2026-05-05 08:08 | 50.03557 | 8.57971 | 369 ft | 6 kts | 70° |
| 2026-05-05 08:08 | 50.03563 | 8.58033 | 370 ft | 8 kts | 101° |
| 2026-05-05 08:08 | 50.03500 | 8.58105 | 369 ft | 8 kts | 164° |
| 2026-05-05 08:08 | 50.03482 | 8.58107 | 368 ft | 2 kts | 195° |
| 2026-05-05 08:09 | 50.03473 | 8.58087 | 368 ft | 2 kts | 249° |
| 2026-05-05 08:09 | 50.03467 | 8.58051 | 368 ft | 3 kts | 261° |
| 2026-05-05 08:09 | 50.03463 | 8.58001 | 367 ft | 4 kts | 266° |
| 2026-05-05 08:09 | 50.03462 | 8.57997 | 367 ft | 0 kts | 258° |